Auburn, WA (98001)

6:39 AM PDT on August 27, 2016 (GMT -0700)
Morning Crest | | Change Station

Elev 407 ft 47.33 °N, 122.26 °W | Updated 15 seconds ago

Scattered Clouds
Scattered Clouds
60.8 °F
Feels Like 60.8 °F
N
0.0
Wind Variable Wind from SW
Gusts 0.0 mph

Today
High -- | Low -- °F
--% Chance of Precip.
Yesterday
High -- | Low -- °F
Precip. -- in
Pressure 29.83 in
Visibility 10.0 miles
Clouds Few 2000 ft
Scattered Clouds 10000 ft
Dew Point 56 °F
Humidity 84%
Rainfall 0.00 in
Snow Depth Not available.
6:22 AM 7:57 PM
Waning Crescent, 24% visible
METAR KSEA 271253Z 22011KT 10SM FEW020 SCT100 16/12 A2982 RMK AO2 SLP099 T01610117
Pressure 29.83 in
Visibility 10.0 miles
Clouds Few 2000 ft
Scattered Clouds 10000 ft
Dew Point 56 °F
Humidity 84%
Rainfall 0.00 in
Snow Depth Not available.
6:22 AM 7:57 PM
Waning Crescent, 24% visible
METAR KSEA 271253Z 22011KT 10SM FEW020 SCT100 16/12 A2982 RMK AO2 SLP099 T01610117

10-Day Weather Forecast

Almanac

Astronomy

Aug. 27, 2016 Rise Set
Actual Time
Civil Twilight
Nautical Twilight
Astronomical Twilight
Moon
Length of Visible Light
Length of Day
Tomorrow will be .
, % of the Moon is Illuminated

Today's Extremes

State Highs State Lows

Community

WunderPhotos

Upload Photos

1,935,337 photos uploaded!

WunderBlog® & News

Nearby

Air Quality

  Air Quality AQ Index Pollutant
Not available.

Snow Depth

Station Depth Elevation

Earthquake Activity

City Distance Mag. Time & Date
Minimum magnitude displayed is 2.5.

Coastal Water Temperatures

Place Temperature

Stations

Nearby Weather Stations

Station Location Temp. Windchill Dew Point Humidity Wind Precip. Elev Updated Type
                   

Watches & Warnings

There are currently no watches in effect.